Time;durP1;ratioP1;P1;durP2;ratioP2;P2;SDS_P1;SDS_P2;PMS_P1;PMS_P2;Temp;Humidity;BMP_temperature;BMP_pressure;BME280_temperature;BME280_humidity;BME280_pressure;Samples;Min_cycle;Max_cycle;Signal;HPM_P1;HPM_P2
2022/03/16 00:02:11;;;;;;;6.35;3.72;;;;;;;;;;10440919;28;20035;-58
2022/03/16 00:07:12;;;;;;;5.80;3.70;;;;;;;;;;10438159;28;20045;-58
2022/03/16 00:12:13;;;;;;;3.60;3.30;;;;;;;;;;10442786;28;20029;-58
2022/03/16 00:17:14;;;;;;;6.55;4.00;;;;;;;;;;10433435;28;20041;-58
2022/03/16 00:22:15;;;;;;;3.83;3.42;;;;;;;;;;10434711;28;20114;-58
2022/03/16 00:27:15;;;;;;;4.93;3.60;;;;;;;;;;10423799;28;20126;-58
2022/03/16 00:32:16;;;;;;;4.47;3.15;;;;;;;;;;10434480;28;20111;-58
2022/03/16 00:37:17;;;;;;;5.00;3.60;;;;;;;;;;10431306;28;20035;-58
2022/03/16 00:42:17;;;;;;;7.15;3.50;;;;;;;;;;10442162;28;20472;-58
2022/03/16 00:47:18;;;;;;;6.00;3.83;;;;;;;;;;10430246;28;20037;-58
2022/03/16 00:52:18;;;;;;;4.20;3.45;;;;;;;;;;10433131;28;20036;-58
2022/03/16 00:57:19;;;;;;;6.57;3.90;;;;;;;;;;10422398;28;20029;-59
2022/03/16 01:02:19;;;;;;;4.03;3.40;;;;;;;;;;10430706;28;20029;-59
2022/03/16 01:07:20;;;;;;;5.03;3.90;;;;;;;;;;10427563;28;20112;-59
2022/03/16 01:12:21;;;;;;;5.10;3.60;;;;;;;;;;10439034;28;20042;-59
2022/03/16 01:17:21;;;;;;;4.30;3.42;;;;;;;;;;10427496;28;20169;-59
2022/03/16 01:22:22;;;;;;;4.70;3.78;;;;;;;;;;10435118;28;20029;-59
2022/03/16 01:27:22;;;;;;;3.97;3.50;;;;;;;;;;10425771;28;20488;-59
2022/03/16 01:32:23;;;;;;;5.03;3.35;;;;;;;;;;10437155;28;20384;-59
2022/03/16 01:37:24;;;;;;;4.78;3.10;;;;;;;;;;10431254;28;20033;-59
2022/03/16 01:42:25;;;;;;;4.57;3.15;;;;;;;;;;10441858;28;20063;-58
2022/03/16 01:47:26;;;;;;;3.45;3.00;;;;;;;;;;10425965;28;20035;-59
2022/03/16 01:52:30;;;;;;;4.70;3.33;;;;;;;;;;10435907;28;20028;-58
2022/03/16 01:57:36;;;;;;;4.05;3.65;;;;;;;;;;10424267;28;20033;-58
2022/03/16 02:02:36;;;;;;;4.55;3.38;;;;;;;;;;10430969;28;20052;-59
2022/03/16 02:07:38;;;;;;;4.47;3.28;;;;;;;;;;10430361;28;20040;-59
2022/03/16 02:12:57;;;;;;;4.20;3.17;;;;;;;;;;10438535;28;20060;-59
2022/03/16 02:17:58;;;;;;;4.40;3.53;;;;;;;;;;10441707;28;20032;-59
2022/03/16 02:23:04;;;;;;;4.47;3.25;;;;;;;;;;10446542;28;20403;-59
2022/03/16 02:28:05;;;;;;;4.72;3.50;;;;;;;;;;10428844;28;20246;-59
2022/03/16 02:33:06;;;;;;;3.65;3.17;;;;;;;;;;10435878;28;20224;-59
2022/03/16 02:38:06;;;;;;;3.85;3.45;;;;;;;;;;10436255;28;20028;-59
2022/03/16 02:43:07;;;;;;;4.40;3.55;;;;;;;;;;10433939;28;20025;-59
2022/03/16 02:48:08;;;;;;;4.80;3.30;;;;;;;;;;10437787;28;20035;-60
2022/03/16 02:53:08;;;;;;;4.35;3.33;;;;;;;;;;10446257;28;20041;-58
2022/03/16 02:58:09;;;;;;;5.32;3.55;;;;;;;;;;10437768;28;20495;-59
2022/03/16 03:03:10;;;;;;;5.97;3.25;;;;;;;;;;10443473;28;20068;-58
2022/03/16 03:08:11;;;;;;;4.07;3.50;;;;;;;;;;10434649;28;20077;-58
2022/03/16 03:13:14;;;;;;;4.75;3.40;;;;;;;;;;10428456;28;20146;-58
2022/03/16 03:18:14;;;;;;;3.95;3.08;;;;;;;;;;10439121;28;20033;-58
2022/03/16 03:23:15;;;;;;;5.53;3.00;;;;;;;;;;10425379;28;20033;-58
2022/03/16 03:28:16;;;;;;;6.38;3.42;;;;;;;;;;10420331;28;20064;-58
2022/03/16 03:33:17;;;;;;;4.55;3.20;;;;;;;;;;10434337;28;20047;-58
2022/03/16 03:38:17;;;;;;;4.30;3.00;;;;;;;;;;10424309;28;20026;-58
2022/03/16 03:43:18;;;;;;;3.10;2.65;;;;;;;;;;10426948;28;20059;-59
2022/03/16 03:48:18;;;;;;;5.65;3.20;;;;;;;;;;10435280;28;20036;-58
2022/03/16 03:53:19;;;;;;;4.63;3.33;;;;;;;;;;10438040;28;20080;-58
2022/03/16 03:58:19;;;;;;;4.18;3.13;;;;;;;;;;10439491;28;20061;-59
2022/03/16 04:03:20;;;;;;;6.72;3.22;;;;;;;;;;10433796;28;20033;-59
2022/03/16 04:08:21;;;;;;;5.72;3.10;;;;;;;;;;10435325;28;20044;-59
2022/03/16 04:13:21;;;;;;;6.03;2.70;;;;;;;;;;10434678;28;20049;-59
2022/03/16 04:18:23;;;;;;;4.95;3.22;;;;;;;;;;10435117;28;20055;-59
2022/03/16 04:23:23;;;;;;;4.55;3.13;;;;;;;;;;10432194;28;20650;-59
2022/03/16 04:28:24;;;;;;;4.03;3.35;;;;;;;;;;10430825;28;20331;-59
2022/03/16 04:33:24;;;;;;;4.18;3.22;;;;;;;;;;10431298;28;20029;-59
2022/03/16 04:38:25;;;;;;;3.95;3.20;;;;;;;;;;10433911;28;20037;-59
2022/03/16 04:43:25;;;;;;;3.03;2.72;;;;;;;;;;10435142;28;20032;-59
2022/03/16 04:48:26;;;;;;;4.60;2.92;;;;;;;;;;10436190;28;20412;-59
2022/03/16 04:53:27;;;;;;;3.63;2.97;;;;;;;;;;10426713;28;20365;-58
2022/03/16 04:58:27;;;;;;;3.35;3.05;;;;;;;;;;10439394;28;20028;-58
2022/03/16 05:03:28;;;;;;;3.38;3.08;;;;;;;;;;10432867;28;20033;-59
2022/03/16 05:08:28;;;;;;;3.15;2.60;;;;;;;;;;10434257;28;20540;-59
2022/03/16 05:13:29;;;;;;;4.20;3.05;;;;;;;;;;10429935;28;20057;-59
2022/03/16 05:18:29;;;;;;;4.70;2.95;;;;;;;;;;10434384;28;20033;-59
2022/03/16 05:23:30;;;;;;;4.35;3.38;;;;;;;;;;10433325;28;20021;-58
2022/03/16 05:28:31;;;;;;;3.67;3.28;;;;;;;;;;10433894;28;20041;-59
2022/03/16 05:33:31;;;;;;;4.70;2.83;;;;;;;;;;10423237;28;20064;-59
2022/03/16 05:38:32;;;;;;;3.22;2.90;;;;;;;;;;10435510;28;20080;-59
2022/03/16 05:43:33;;;;;;;3.60;3.00;;;;;;;;;;10426611;28;20028;-60
2022/03/16 05:48:33;;;;;;;5.22;3.03;;;;;;;;;;10438158;28;20442;-61
2022/03/16 05:53:34;;;;;;;3.17;2.75;;;;;;;;;;10434639;28;20107;-61
2022/03/16 05:58:34;;;;;;;4.97;2.58;;;;;;;;;;10440497;28;20037;-59
2022/03/16 06:03:35;;;;;;;3.78;3.15;;;;;;;;;;10438431;28;20032;-59
2022/03/16 06:08:36;;;;;;;3.20;2.83;;;;;;;;;;10443989;28;20029;-59
2022/03/16 06:13:36;;;;;;;3.30;3.00;;;;;;;;;;10439861;28;20112;-59
2022/03/16 06:18:37;;;;;;;3.25;2.83;;;;;;;;;;10435532;28;20037;-59
2022/03/16 06:23:37;;;;;;;3.03;2.53;;;;;;;;;;10438773;28;20033;-59
2022/03/16 06:28:38;;;;;;;3.25;2.95;;;;;;;;;;10437361;28;20040;-59
2022/03/16 06:33:38;;;;;;;3.83;3.05;;;;;;;;;;10437461;28;20040;-59
2022/03/16 06:38:39;;;;;;;3.33;3.03;;;;;;;;;;10424241;28;20021;-59
2022/03/16 06:43:40;;;;;;;8.48;3.05;;;;;;;;;;10417594;28;20037;-60
2022/03/16 06:48:41;;;;;;;4.20;3.20;;;;;;;;;;10430648;28;20028;-59
2022/03/16 06:53:42;;;;;;;5.43;3.40;;;;;;;;;;10419594;28;20164;-58
2022/03/16 06:58:42;;;;;;;4.75;3.70;;;;;;;;;;10430762;28;20037;-59
2022/03/16 07:03:44;;;;;;;3.85;3.35;;;;;;;;;;10433928;28;20459;-58
2022/03/16 07:08:46;;;;;;;5.32;3.80;;;;;;;;;;10435001;28;20052;-56
2022/03/16 07:14:30;;;;;;;6.55;4.10;;;;;;;;;;10428619;28;20599;-58
2022/03/16 07:19:08;;;;;;;8.00;4.18;;;;;;;;;;10429653;28;20075;-57
2022/03/16 07:24:08;;;;;;;7.70;4.40;;;;;;;;;;10435823;28;20631;-58
2022/03/16 07:29:09;;;;;;;7.72;4.28;;;;;;;;;;10420077;28;20084;-57
2022/03/16 07:34:09;;;;;;;7.75;5.25;;;;;;;;;;10426219;28;20025;-59
2022/03/16 07:39:11;;;;;;;7.18;4.22;;;;;;;;;;10433354;28;20029;-58
2022/03/16 07:44:11;;;;;;;11.48;4.53;;;;;;;;;;10435600;28;20029;-58
2022/03/16 07:49:12;;;;;;;5.38;3.95;;;;;;;;;;10432072;28;20025;-59
2022/03/16 07:54:13;;;;;;;5.15;4.53;;;;;;;;;;10420799;28;20042;-61
2022/03/16 07:59:14;;;;;;;9.98;4.95;;;;;;;;;;10429608;28;20041;-61
2022/03/16 08:04:15;;;;;;;9.45;5.28;;;;;;;;;;10430826;28;20033;-71
2022/03/16 08:09:16;;;;;;;11.82;5.90;;;;;;;;;;10420727;28;20116;-64
2022/03/16 08:14:16;;;;;;;8.98;5.18;;;;;;;;;;10436583;28;20028;-70
2022/03/16 08:19:18;;;;;;;9.85;5.47;;;;;;;;;;10421732;28;20465;-80
2022/03/16 08:24:19;;;;;;;10.20;5.85;;;;;;;;;;10432414;28;20121;-66
2022/03/16 08:29:19;;;;;;;11.43;5.68;;;;;;;;;;10422076;28;20064;-61
2022/03/16 08:34:20;;;;;;;10.32;5.97;;;;;;;;;;10422948;28;20021;-63
2022/03/16 08:39:21;;;;;;;14.40;6.47;;;;;;;;;;10431781;28;20498;-61
2022/03/16 08:44:24;;;;;;;14.25;6.55;;;;;;;;;;10432559;28;20049;-69
2022/03/16 08:49:25;;;;;;;10.35;5.97;;;;;;;;;;10434528;28;20171;-65
2022/03/16 08:54:26;;;;;;;10.88;5.68;;;;;;;;;;10434879;28;20045;-69
2022/03/16 08:59:26;;;;;;;9.50;6.72;;;;;;;;;;10424326;28;20394;-65
2022/03/16 09:04:27;;;;;;;14.82;7.55;;;;;;;;;;10440193;28;20168;-66
2022/03/16 09:09:28;;;;;;;9.40;5.80;;;;;;;;;;10435800;28;20029;-69
2022/03/16 09:14:28;;;;;;;15.15;6.55;;;;;;;;;;10434674;28;20040;-65
2022/03/16 09:19:29;;;;;;;11.70;5.78;;;;;;;;;;10438281;28;20029;-62
2022/03/16 09:24:30;;;;;;;9.05;6.07;;;;;;;;;;10388277;28;20052;-63
2022/03/16 09:29:32;;;;;;;8.00;5.80;;;;;;;;;;10412935;28;20045;-65
2022/03/16 09:34:32;;;;;;;9.85;5.72;;;;;;;;;;10411672;28;20490;-71
2022/03/16 09:39:37;;;;;;;7.25;5.82;;;;;;;;;;10405540;28;20448;-67
2022/03/16 09:44:38;;;;;;;13.02;5.20;;;;;;;;;;10406490;28;20395;-65
2022/03/16 09:49:46;;;;;;;10.63;5.85;;;;;;;;;;10411216;28;20049;-64
2022/03/16 09:54:47;;;;;;;10.18;6.00;;;;;;;;;;10411634;28;20055;-61
2022/03/16 09:59:48;;;;;;;10.43;6.07;;;;;;;;;;10406866;28;20029;-57
2022/03/16 10:04:49;;;;;;;7.53;5.78;;;;;;;;;;10407304;28;20086;-55
2022/03/16 10:15:18;;;;;;;11.80;5.85;;;;;;;;;;10398944;28;20132;-67
2022/03/16 10:20:30;;;;;;;6.20;5.28;;;;;;;;;;10405174;28;20025;-65
2022/03/16 10:25:37;;;;;;;12.40;5.22;;;;;;;;;;10398536;28;20096;-63
2022/03/16 10:30:47;;;;;;;7.85;5.72;;;;;;;;;;10420117;28;20048;-62
2022/03/16 10:36:09;;;;;;;9.18;5.78;;;;;;;;;;10422207;28;20044;-63
2022/03/16 10:46:34;;;;;;;7.60;5.85;;;;;;;;;;10417862;28;20041;-60
2022/03/16 10:46:46;;;;;;;32.67;21.88;;;;;;;;;;10407872;28;20123;-65
2022/03/16 10:52:05;;;;;;;;;;;;;;;;;;10421164;28;20467;-60
2022/03/16 10:57:10;;;;;;;26.80;16.30;;;;;;;;;;10410005;28;19917;-60
2022/03/16 11:02:14;;;;;;;27.05;16.92;;;;;;;;;;10410598;28;20293;-60
2022/03/16 11:07:15;;;;;;;21.98;15.10;;;;;;;;;;10413891;28;20388;-60
2022/03/16 11:17:36;;;;;;;17.75;12.82;;;;;;;;;;10403328;28;20295;-57
2022/03/16 11:28:42;;;;;;;74.20;37.50;;;;;;;;;;10411698;28;20049;-61
2022/03/16 11:33:53;;;;;;;87.97;50.53;;;;;;;;;;10418004;28;20032;-59
2022/03/16 11:38:53;;;;;;;111.28;63.67;;;;;;;;;;10373942;28;20099;-64
2022/03/16 11:44:26;;;;;;;129.05;76.40;;;;;;;;;;10402718;28;20033;-58
2022/03/16 11:49:29;;;;;;;159.20;92.53;;;;;;;;;;10390599;28;20034;-59
2022/03/16 11:54:49;;;;;;;141.32;83.40;;;;;;;;;;10403530;28;20040;-62
2022/03/16 11:59:49;;;;;;;147.35;90.15;;;;;;;;;;10378742;28;20056;-62
2022/03/16 12:05:00;;;;;;;140.20;85.70;;;;;;;;;;10371980;28;20366;-60
2022/03/16 12:10:12;;;;;;;120.72;70.95;;;;;;;;;;10366292;28;20026;-61
2022/03/16 12:15:15;;;;;;;117.70;66.88;;;;;;;;;;10367401;28;20038;-70
2022/03/16 12:20:24;;;;;;;108.38;63.90;;;;;;;;;;10368749;28;20026;-60
2022/03/16 12:25:26;;;;;;;102.68;60.72;;;;;;;;;;10366460;28;20108;-63
2022/03/16 12:30:27;;;;;;;92.78;55.92;;;;;;;;;;10366824;28;20596;-62
2022/03/16 12:35:34;;;;;;;93.45;52.53;;;;;;;;;;10363433;28;20025;-59
2022/03/16 12:46:17;;;;;;;74.25;45.58;;;;;;;;;;10365369;28;20042;-60
2022/03/16 12:51:39;;;;;;;73.93;44.53;;;;;;;;;;10365015;28;20037;-60
2022/03/16 12:56:46;;;;;;;70.55;45.35;;;;;;;;;;10363645;28;20477;-59
2022/03/16 13:01:47;;;;;;;77.10;45.40;;;;;;;;;;10358447;28;20029;-60
2022/03/16 13:06:48;;;;;;;62.95;37.72;;;;;;;;;;10372523;28;20400;-62
2022/03/16 13:11:49;;;;;;;65.30;36.88;;;;;;;;;;10363401;28;20037;-62
2022/03/16 13:16:55;;;;;;;55.45;34.03;;;;;;;;;;10365678;28;20052;-63
2022/03/16 13:22:09;;;;;;;50.83;29.27;;;;;;;;;;10365819;28;20037;-61
2022/03/16 13:27:15;;;;;;;50.78;28.73;;;;;;;;;;10371603;28;20394;-60
2022/03/16 13:32:19;;;;;;;45.97;25.85;;;;;;;;;;10367307;28;20037;-60
2022/03/16 13:37:23;;;;;;;44.38;24.80;;;;;;;;;;10356016;28;20022;-59
2022/03/16 13:42:32;;;;;;;38.47;23.80;;;;;;;;;;10359094;28;20121;-60
2022/03/16 13:47:35;;;;;;;;;;;;;;;;;;10363596;28;20370;-61
2022/03/16 13:52:40;;;;;;;38.17;22.17;;;;;;;;;;10361803;28;20288;-62
2022/03/16 13:57:46;;;;;;;39.97;22.73;;;;;;;;;;10369286;28;20107;-62
2022/03/16 14:02:47;;;;;;;37.50;22.83;;;;;;;;;;10368671;28;20029;-58
2022/03/16 14:07:51;;;;;;;34.60;21.75;;;;;;;;;;10375359;28;20029;-62
2022/03/16 14:13:03;;;;;;;34.45;20.50;;;;;;;;;;10377781;28;20060;-58
2022/03/16 14:18:15;;;;;;;36.47;20.65;;;;;;;;;;10375676;28;20036;-57
2022/03/16 14:23:15;;;;;;;33.17;20.92;;;;;;;;;;10374014;28;20033;-59
2022/03/16 14:28:18;;;;;;;33.25;19.35;;;;;;;;;;10373912;28;20493;-62
2022/03/16 14:33:24;;;;;;;30.63;19.73;;;;;;;;;;10370431;28;20531;-59
2022/03/16 14:38:26;;;;;;;30.95;18.95;;;;;;;;;;10368593;28;20065;-62
2022/03/16 14:43:29;;;;;;;28.58;18.58;;;;;;;;;;10371238;28;20501;-55
2022/03/16 14:48:30;;;;;;;108.15;29.30;;;;;;;;;;10370131;28;20128;-58
2022/03/16 14:53:30;;;;;;;76.90;26.55;;;;;;;;;;10379655;28;20038;-52
2022/03/16 14:58:31;;;;;;;65.93;27.63;;;;;;;;;;10376373;28;20045;-55
2022/03/16 15:03:32;;;;;;;43.47;22.95;;;;;;;;;;10372031;28;20018;-54
2022/03/16 15:08:32;;;;;;;53.13;28.02;;;;;;;;;;10371393;28;20044;-50
2022/03/16 15:13:33;;;;;;;83.07;31.48;;;;;;;;;;10370275;28;20477;-57
2022/03/16 15:18:33;;;;;;;91.05;27.15;;;;;;;;;;10370183;28;20034;-63
2022/03/16 15:23:34;;;;;;;67.40;24.85;;;;;;;;;;10373108;28;20022;-67
2022/03/16 15:28:35;;;;;;;59.55;23.33;;;;;;;;;;10372252;28;20050;-60
2022/03/16 15:33:35;;;;;;;51.17;21.20;;;;;;;;;;10368596;28;20045;-55
2022/03/16 15:38:36;;;;;;;41.47;19.35;;;;;;;;;;10370804;28;21129;-52
2022/03/16 15:43:36;;;;;;;49.63;19.80;;;;;;;;;;10370609;28;20121;-48
2022/03/16 15:48:37;;;;;;;44.63;18.60;;;;;;;;;;10367185;28;20021;-48
2022/03/16 15:53:38;;;;;;;36.63;17.40;;;;;;;;;;10355018;28;20037;-46
2022/03/16 15:58:39;;;;;;;35.30;16.20;;;;;;;;;;10373525;28;20057;-47
2022/03/16 16:03:40;;;;;;;26.65;15.93;;;;;;;;;;10369378;28;20571;-46
2022/03/16 16:08:40;;;;;;;31.60;16.02;;;;;;;;;;10368248;28;20172;-48
2022/03/16 16:13:43;;;;;;;33.30;15.85;;;;;;;;;;10367507;28;20037;-47
2022/03/16 16:18:43;;;;;;;29.33;14.88;;;;;;;;;;10368669;28;20041;-45
2022/03/16 19:08:13;;;;;;;17.02;8.82;;;;;;;;;;10389297;27;21186;-49
2022/03/16 19:18:33;;;;;;;12.32;9.23;;;;;;;;;;10350169;28;20034;-48
2022/03/16 19:23:34;;;;;;;13.93;8.50;;;;;;;;;;10348427;28;20378;-48
2022/03/16 19:28:34;;;;;;;17.77;8.52;;;;;;;;;;10356537;28;20026;-50
2022/03/16 19:33:36;;;;;;;17.05;8.50;;;;;;;;;;10340538;28;20437;-47
2022/03/16 19:38:37;;;;;;;12.43;8.43;;;;;;;;;;10343228;28;20050;-48
2022/03/16 19:43:38;;;;;;;15.82;8.60;;;;;;;;;;10359686;28;20100;-48
2022/03/16 19:48:40;;;;;;;13.05;8.88;;;;;;;;;;10359999;28;20442;-48
2022/03/16 19:53:40;;;;;;;15.55;9.82;;;;;;;;;;10358525;28;20034;-48
2022/03/16 19:58:41;;;;;;;17.98;9.80;;;;;;;;;;10357793;28;20064;-48
2022/03/16 20:03:42;;;;;;;18.92;9.70;;;;;;;;;;10359335;28;20100;-47
2022/03/16 20:08:42;;;;;;;19.13;9.60;;;;;;;;;;10333361;28;20030;-48
2022/03/16 20:13:43;;;;;;;16.40;8.80;;;;;;;;;;10331449;28;20367;-49
2022/03/16 20:18:46;;;;;;;20.42;9.68;;;;;;;;;;10332154;28;20029;-48
2022/03/16 20:23:47;;;;;;;16.70;9.35;;;;;;;;;;10330837;28;20038;-48
2022/03/16 20:28:51;;;;;;;12.32;8.50;;;;;;;;;;10322349;28;20490;-48
2022/03/16 20:33:52;;;;;;;13.57;8.82;;;;;;;;;;10330504;28;20060;-48
2022/03/16 20:38:54;;;;;;;15.25;9.02;;;;;;;;;;10331365;28;20022;-48
2022/03/16 20:43:59;;;;;;;13.23;8.90;;;;;;;;;;10330470;28;20038;-49
2022/03/16 20:49:01;;;;;;;13.52;8.20;;;;;;;;;;10330976;28;20027;-47
2022/03/16 20:54:03;;;;;;;18.02;9.35;;;;;;;;;;10330089;28;20034;-48
2022/03/16 21:04:26;;;;;;;12.05;8.13;;;;;;;;;;10318962;28;20043;-49
2022/03/16 21:09:30;;;;;;;17.58;8.45;;;;;;;;;;10330402;28;20385;-55
2022/03/16 21:14:33;;;;;;;12.70;8.43;;;;;;;;;;10329188;28;20282;-48
2022/03/16 21:19:36;;;;;;;15.52;8.40;;;;;;;;;;10329419;28;20033;-48
2022/03/16 21:24:38;;;;;;;19.38;8.45;;;;;;;;;;10329104;28;20093;-49
2022/03/16 21:29:40;;;;;;;12.52;8.40;;;;;;;;;;10329306;28;20032;-48
2022/03/16 21:34:41;;;;;;;20.63;9.00;;;;;;;;;;10328753;28;20038;-48
2022/03/16 21:39:44;;;;;;;17.13;8.05;;;;;;;;;;10311983;28;20113;-48
2022/03/16 21:44:47;;;;;;;13.27;7.88;;;;;;;;;;10328576;28;20038;-55
2022/03/16 21:49:51;;;;;;;12.30;8.27;;;;;;;;;;10329171;28;20034;-48
2022/03/16 21:54:52;;;;;;;11.50;8.10;;;;;;;;;;10327908;28;20030;-48
2022/03/16 21:59:53;;;;;;;16.83;8.75;;;;;;;;;;10328358;28;20022;-49
2022/03/16 22:04:56;;;;;;;17.40;8.88;;;;;;;;;;10327385;28;20038;-47
2022/03/16 22:09:56;;;;;;;14.38;8.05;;;;;;;;;;10308112;28;20030;-50
2022/03/16 22:14:57;;;;;;;11.27;7.18;;;;;;;;;;10323662;28;20053;-50
2022/03/16 22:19:58;;;;;;;11.55;8.25;;;;;;;;;;10321474;28;20027;-50
2022/03/16 22:24:58;;;;;;;15.57;7.57;;;;;;;;;;10324314;28;20417;-49
2022/03/16 22:29:59;;;;;;;11.10;7.55;;;;;;;;;;10310536;28;20026;-49
2022/03/16 22:34:59;;;;;;;10.60;7.35;;;;;;;;;;10305932;28;20034;-50
2022/03/16 22:40:00;;;;;;;13.80;7.15;;;;;;;;;;10303767;28;20049;-53
2022/03/16 22:45:02;;;;;;;8.73;6.70;;;;;;;;;;10318632;28;20429;-52
2022/03/16 22:50:04;;;;;;;15.13;6.88;;;;;;;;;;10318977;28;20023;-49
2022/03/16 22:55:07;;;;;;;14.23;6.65;;;;;;;;;;10320706;28;20034;-55
2022/03/16 23:00:36;;;;;;;11.48;7.50;;;;;;;;;;10321058;28;20100;-48
2022/03/16 23:05:37;;;;;;;15.25;6.00;;;;;;;;;;10317158;28;20413;-48
2022/03/16 23:10:37;;;;;;;15.70;7.10;;;;;;;;;;10310673;28;20041;-48
2022/03/16 23:15:38;;;;;;;12.15;6.30;;;;;;;;;;10317948;28;20381;-48
2022/03/16 23:20:39;;;;;;;11.57;7.97;;;;;;;;;;10310539;28;20074;-50
2022/03/16 23:25:40;;;;;;;12.50;7.35;;;;;;;;;;10320368;28;20529;-54
2022/03/16 23:30:40;;;;;;;8.93;6.45;;;;;;;;;;10319743;28;20023;-51
2022/03/16 23:35:41;;;;;;;9.93;7.18;;;;;;;;;;10318782;28;20030;-50
2022/03/16 23:40:42;;;;;;;15.00;6.78;;;;;;;;;;10321471;28;20536;-50
2022/03/16 23:45:42;;;;;;;9.20;6.45;;;;;;;;;;10328167;28;20034;-52
2022/03/16 23:50:43;;;;;;;14.02;7.10;;;;;;;;;;10327966;28;20041;-49
2022/03/16 23:55:44;;;;;;;10.63;7.40;;;;;;;;;;10324384;28;20092;-50
